sensor_id;sensor_type;location;lat;lon;timestamp;P1;durP1;ratioP1;P2;durP2;ratioP2
40755;SDS011;26461;45.630;9.418;2022-07-29T00:00:25;4.22;;;1.20;;
40755;SDS011;26461;45.630;9.418;2022-07-29T00:03:35;2.65;;;0.60;;
40755;SDS011;26461;45.630;9.418;2022-07-29T00:06:46;2.53;;;0.70;;
40755;SDS011;26461;45.630;9.418;2022-07-29T00:09:56;2.67;;;0.70;;
40755;SDS011;26461;45.630;9.418;2022-07-29T00:13:05;2.45;;;0.52;;
40755;SDS011;26461;45.630;9.418;2022-07-29T00:16:16;2.10;;;0.50;;
40755;SDS011;26461;45.630;9.418;2022-07-29T00:19:26;2.00;;;0.50;;
40755;SDS011;26461;45.630;9.418;2022-07-29T00:22:37;2.10;;;0.60;;
40755;SDS011;26461;45.630;9.418;2022-07-29T00:25:50;2.38;;;0.50;;
40755;SDS011;26461;45.630;9.418;2022-07-29T00:29:01;2.75;;;0.73;;
40755;SDS011;26461;45.630;9.418;2022-07-29T00:32:13;2.45;;;0.70;;
40755;SDS011;26461;45.630;9.418;2022-07-29T00:35:20;2.63;;;0.50;;
40755;SDS011;26461;45.630;9.418;2022-07-29T00:38:43;2.60;;;0.60;;
40755;SDS011;26461;45.630;9.418;2022-07-29T00:41:50;2.95;;;0.75;;
40755;SDS011;26461;45.630;9.418;2022-07-29T00:45:00;3.42;;;0.65;;
40755;SDS011;26461;45.630;9.418;2022-07-29T00:48:10;6.57;;;0.90;;
40755;SDS011;26461;45.630;9.418;2022-07-29T00:51:20;2.00;;;0.85;;
40755;SDS011;26461;45.630;9.418;2022-07-29T00:54:30;2.45;;;0.60;;
40755;SDS011;26461;45.630;9.418;2022-07-29T00:57:41;2.95;;;0.63;;
40755;SDS011;26461;45.630;9.418;2022-07-29T01:00:52;2.90;;;0.93;;
40755;SDS011;26461;45.630;9.418;2022-07-29T01:04:02;5.05;;;0.50;;
40755;SDS011;26461;45.630;9.418;2022-07-29T01:07:13;4.55;;;0.50;;
40755;SDS011;26461;45.630;9.418;2022-07-29T01:10:23;3.50;;;0.95;;
40755;SDS011;26461;45.630;9.418;2022-07-29T01:13:34;3.00;;;0.50;;
40755;SDS011;26461;45.630;9.418;2022-07-29T01:17:18;2.63;;;0.50;;
40755;SDS011;26461;45.630;9.418;2022-07-29T01:20:28;2.25;;;1.10;;
40755;SDS011;26461;45.630;9.418;2022-07-29T01:31:07;2.25;;;0.40;;
40755;SDS011;26461;45.630;9.418;2022-07-29T01:38:13;1.75;;;0.40;;
40755;SDS011;26461;45.630;9.418;2022-07-29T01:41:30;4.30;;;1.67;;
40755;SDS011;26461;45.630;9.418;2022-07-29T01:44:45;5.00;;;0.90;;
40755;SDS011;26461;45.630;9.418;2022-07-29T01:48:05;2.50;;;0.60;;
40755;SDS011;26461;45.630;9.418;2022-07-29T01:51:20;3.70;;;0.70;;
40755;SDS011;26461;45.630;9.418;2022-07-29T01:54:42;3.65;;;0.70;;
40755;SDS011;26461;45.630;9.418;2022-07-29T01:57:55;3.35;;;0.60;;
40755;SDS011;26461;45.630;9.418;2022-07-29T02:01:08;3.67;;;1.08;;
40755;SDS011;26461;45.630;9.418;2022-07-29T02:04:19;1.83;;;0.50;;
40755;SDS011;26461;45.630;9.418;2022-07-29T02:07:29;5.30;;;0.90;;
40755;SDS011;26461;45.630;9.418;2022-07-29T02:10:36;6.18;;;0.90;;
40755;SDS011;26461;45.630;9.418;2022-07-29T02:13:48;2.53;;;0.70;;
40755;SDS011;26461;45.630;9.418;2022-07-29T02:17:00;1.60;;;0.50;;
40755;SDS011;26461;45.630;9.418;2022-07-29T02:20:11;3.38;;;0.80;;
40755;SDS011;26461;45.630;9.418;2022-07-29T02:23:22;1.88;;;0.47;;
40755;SDS011;26461;45.630;9.418;2022-07-29T02:26:29;2.92;;;0.50;;
40755;SDS011;26461;45.630;9.418;2022-07-29T02:29:42;1.95;;;0.70;;
40755;SDS011;26461;45.630;9.418;2022-07-29T02:32:54;2.08;;;0.90;;
40755;SDS011;26461;45.630;9.418;2022-07-29T02:36:05;2.67;;;0.85;;
40755;SDS011;26461;45.630;9.418;2022-07-29T02:39:15;4.22;;;0.88;;
40755;SDS011;26461;45.630;9.418;2022-07-29T02:42:27;2.75;;;0.43;;
40755;SDS011;26461;45.630;9.418;2022-07-29T02:45:38;2.28;;;0.82;;
40755;SDS011;26461;45.630;9.418;2022-07-29T02:48:49;3.60;;;0.75;;
40755;SDS011;26461;45.630;9.418;2022-07-29T02:52:06;4.85;;;0.95;;
40755;SDS011;26461;45.630;9.418;2022-07-29T02:55:26;1.98;;;0.85;;
40755;SDS011;26461;45.630;9.418;2022-07-29T02:58:42;2.15;;;0.60;;
40755;SDS011;26461;45.630;9.418;2022-07-29T03:01:56;6.32;;;0.80;;
40755;SDS011;26461;45.630;9.418;2022-07-29T03:05:09;3.95;;;0.90;;
40755;SDS011;26461;45.630;9.418;2022-07-29T03:08:25;4.65;;;0.80;;
40755;SDS011;26461;45.630;9.418;2022-07-29T03:11:36;3.78;;;0.75;;
40755;SDS011;26461;45.630;9.418;2022-07-29T03:14:43;5.88;;;0.80;;
40755;SDS011;26461;45.630;9.418;2022-07-29T03:17:53;2.28;;;0.70;;
40755;SDS011;26461;45.630;9.418;2022-07-29T03:21:00;2.45;;;0.50;;
40755;SDS011;26461;45.630;9.418;2022-07-29T03:24:09;3.58;;;1.52;;
40755;SDS011;26461;45.630;9.418;2022-07-29T03:27:14;2.42;;;0.65;;
40755;SDS011;26461;45.630;9.418;2022-07-29T03:30:24;2.80;;;1.17;;
40755;SDS011;26461;45.630;9.418;2022-07-29T03:33:34;2.00;;;0.68;;
40755;SDS011;26461;45.630;9.418;2022-07-29T03:36:44;2.33;;;1.35;;
40755;SDS011;26461;45.630;9.418;2022-07-29T03:39:55;2.15;;;0.80;;
40755;SDS011;26461;45.630;9.418;2022-07-29T03:43:07;4.90;;;1.50;;
40755;SDS011;26461;45.630;9.418;2022-07-29T03:46:20;2.63;;;0.80;;
40755;SDS011;26461;45.630;9.418;2022-07-29T03:49:36;2.58;;;0.50;;
40755;SDS011;26461;45.630;9.418;2022-07-29T03:52:46;2.67;;;0.70;;
40755;SDS011;26461;45.630;9.418;2022-07-29T03:55:58;2.72;;;0.50;;
40755;SDS011;26461;45.630;9.418;2022-07-29T03:59:11;1.60;;;0.40;;
40755;SDS011;26461;45.630;9.418;2022-07-29T04:02:18;2.15;;;0.50;;
40755;SDS011;26461;45.630;9.418;2022-07-29T04:05:29;1.70;;;0.50;;
40755;SDS011;26461;45.630;9.418;2022-07-29T04:08:39;2.85;;;0.65;;
40755;SDS011;26461;45.630;9.418;2022-07-29T04:11:48;2.53;;;1.00;;
40755;SDS011;26461;45.630;9.418;2022-07-29T04:14:59;7.45;;;0.70;;
40755;SDS011;26461;45.630;9.418;2022-07-29T04:18:09;5.22;;;0.50;;
40755;SDS011;26461;45.630;9.418;2022-07-29T04:21:19;5.38;;;0.80;;
40755;SDS011;26461;45.630;9.418;2022-07-29T04:24:29;2.33;;;0.70;;
40755;SDS011;26461;45.630;9.418;2022-07-29T04:27:39;2.05;;;0.60;;
40755;SDS011;26461;45.630;9.418;2022-07-29T04:31:09;2.28;;;0.60;;
40755;SDS011;26461;45.630;9.418;2022-07-29T04:34:19;1.70;;;0.40;;
40755;SDS011;26461;45.630;9.418;2022-07-29T04:37:30;2.05;;;0.45;;
40755;SDS011;26461;45.630;9.418;2022-07-29T04:40:40;4.43;;;0.60;;
40755;SDS011;26461;45.630;9.418;2022-07-29T04:43:45;2.70;;;0.75;;
40755;SDS011;26461;45.630;9.418;2022-07-29T04:46:55;3.90;;;0.52;;
40755;SDS011;26461;45.630;9.418;2022-07-29T04:50:06;3.60;;;0.60;;
40755;SDS011;26461;45.630;9.418;2022-07-29T04:53:18;2.42;;;0.50;;
40755;SDS011;26461;45.630;9.418;2022-07-29T04:56:28;2.00;;;0.40;;
40755;SDS011;26461;45.630;9.418;2022-07-29T04:59:38;2.28;;;0.68;;
40755;SDS011;26461;45.630;9.418;2022-07-29T05:02:48;3.35;;;0.95;;
40755;SDS011;26461;45.630;9.418;2022-07-29T05:05:58;1.90;;;0.50;;
40755;SDS011;26461;45.630;9.418;2022-07-29T05:09:08;3.78;;;0.75;;
40755;SDS011;26461;45.630;9.418;2022-07-29T05:12:18;2.90;;;0.60;;
40755;SDS011;26461;45.630;9.418;2022-07-29T05:15:28;2.33;;;0.80;;
40755;SDS011;26461;45.630;9.418;2022-07-29T05:18:38;4.72;;;0.80;;
40755;SDS011;26461;45.630;9.418;2022-07-29T05:21:48;2.60;;;0.63;;
40755;SDS011;26461;45.630;9.418;2022-07-29T05:24:54;4.05;;;0.90;;
40755;SDS011;26461;45.630;9.418;2022-07-29T05:28:04;4.63;;;0.70;;
40755;SDS011;26461;45.630;9.418;2022-07-29T05:31:14;2.13;;;0.50;;
40755;SDS011;26461;45.630;9.418;2022-07-29T05:34:24;3.75;;;1.00;;
40755;SDS011;26461;45.630;9.418;2022-07-29T05:37:35;2.55;;;0.65;;
40755;SDS011;26461;45.630;9.418;2022-07-29T05:40:45;5.28;;;0.82;;
40755;SDS011;26461;45.630;9.418;2022-07-29T05:43:55;1.80;;;0.50;;
40755;SDS011;26461;45.630;9.418;2022-07-29T05:47:05;2.65;;;0.90;;
40755;SDS011;26461;45.630;9.418;2022-07-29T05:50:15;4.85;;;1.15;;
40755;SDS011;26461;45.630;9.418;2022-07-29T05:53:25;3.03;;;0.82;;
40755;SDS011;26461;45.630;9.418;2022-07-29T05:56:30;4.35;;;1.17;;
40755;SDS011;26461;45.630;9.418;2022-07-29T05:59:40;3.03;;;1.20;;
40755;SDS011;26461;45.630;9.418;2022-07-29T06:02:50;2.65;;;0.50;;
40755;SDS011;26461;45.630;9.418;2022-07-29T06:06:00;2.30;;;0.70;;
40755;SDS011;26461;45.630;9.418;2022-07-29T06:09:10;6.57;;;1.00;;
40755;SDS011;26461;45.630;9.418;2022-07-29T06:12:20;4.50;;;0.82;;
40755;SDS011;26461;45.630;9.418;2022-07-29T06:15:25;2.58;;;0.80;;
40755;SDS011;26461;45.630;9.418;2022-07-29T06:18:35;4.75;;;0.88;;
40755;SDS011;26461;45.630;9.418;2022-07-29T06:21:46;7.25;;;0.60;;
40755;SDS011;26461;45.630;9.418;2022-07-29T06:24:56;4.40;;;1.50;;
40755;SDS011;26461;45.630;9.418;2022-07-29T06:28:05;13.40;;;1.33;;
40755;SDS011;26461;45.630;9.418;2022-07-29T06:31:15;2.60;;;1.08;;
40755;SDS011;26461;45.630;9.418;2022-07-29T06:34:26;5.78;;;2.15;;
40755;SDS011;26461;45.630;9.418;2022-07-29T06:37:36;3.25;;;1.20;;
40755;SDS011;26461;45.630;9.418;2022-07-29T06:40:45;2.70;;;0.80;;
40755;SDS011;26461;45.630;9.418;2022-07-29T06:44:15;10.50;;;0.85;;
40755;SDS011;26461;45.630;9.418;2022-07-29T06:47:27;2.25;;;0.60;;
40755;SDS011;26461;45.630;9.418;2022-07-29T06:50:38;2.60;;;0.77;;
40755;SDS011;26461;45.630;9.418;2022-07-29T06:53:49;3.47;;;0.60;;
40755;SDS011;26461;45.630;9.418;2022-07-29T06:57:00;2.85;;;0.93;;
40755;SDS011;26461;45.630;9.418;2022-07-29T07:00:10;3.47;;;1.20;;
40755;SDS011;26461;45.630;9.418;2022-07-29T07:03:16;8.35;;;1.25;;
40755;SDS011;26461;45.630;9.418;2022-07-29T07:06:27;4.13;;;1.00;;
40755;SDS011;26461;45.630;9.418;2022-07-29T07:09:37;2.13;;;0.60;;
40755;SDS011;26461;45.630;9.418;2022-07-29T07:12:47;2.55;;;0.88;;
40755;SDS011;26461;45.630;9.418;2022-07-29T07:15:56;5.60;;;0.70;;
40755;SDS011;26461;45.630;9.418;2022-07-29T07:19:06;2.58;;;0.60;;
40755;SDS011;26461;45.630;9.418;2022-07-29T07:22:16;4.10;;;0.93;;
40755;SDS011;26461;45.630;9.418;2022-07-29T07:25:27;4.20;;;0.90;;
40755;SDS011;26461;45.630;9.418;2022-07-29T07:28:37;2.30;;;0.77;;
40755;SDS011;26461;45.630;9.418;2022-07-29T07:31:47;4.50;;;0.63;;
40755;SDS011;26461;45.630;9.418;2022-07-29T07:34:57;2.53;;;1.02;;
40755;SDS011;26461;45.630;9.418;2022-07-29T07:38:08;2.72;;;0.55;;
40755;SDS011;26461;45.630;9.418;2022-07-29T07:41:18;3.70;;;0.40;;
40755;SDS011;26461;45.630;9.418;2022-07-29T07:44:29;4.05;;;0.50;;
40755;SDS011;26461;45.630;9.418;2022-07-29T07:47:39;3.92;;;0.68;;
40755;SDS011;26461;45.630;9.418;2022-07-29T07:50:49;3.38;;;0.77;;
40755;SDS011;26461;45.630;9.418;2022-07-29T07:53:59;5.30;;;0.70;;
40755;SDS011;26461;45.630;9.418;2022-07-29T07:57:10;2.20;;;0.70;;
40755;SDS011;26461;45.630;9.418;2022-07-29T08:00:23;3.75;;;0.98;;
40755;SDS011;26461;45.630;9.418;2022-07-29T08:03:34;4.15;;;0.98;;
40755;SDS011;26461;45.630;9.418;2022-07-29T08:06:39;2.95;;;0.98;;
40755;SDS011;26461;45.630;9.418;2022-07-29T08:09:49;7.95;;;0.70;;
40755;SDS011;26461;45.630;9.418;2022-07-29T08:13:01;4.05;;;1.33;;
40755;SDS011;26461;45.630;9.418;2022-07-29T08:16:12;2.05;;;0.75;;
40755;SDS011;26461;45.630;9.418;2022-07-29T08:19:24;1.95;;;0.52;;
40755;SDS011;26461;45.630;9.418;2022-07-29T08:22:34;3.45;;;0.80;;
40755;SDS011;26461;45.630;9.418;2022-07-29T08:25:43;4.05;;;1.13;;
40755;SDS011;26461;45.630;9.418;2022-07-29T08:28:53;3.60;;;0.50;;
40755;SDS011;26461;45.630;9.418;2022-07-29T08:32:03;4.97;;;0.60;;
40755;SDS011;26461;45.630;9.418;2022-07-29T08:35:14;2.45;;;0.82;;
40755;SDS011;26461;45.630;9.418;2022-07-29T08:38:24;3.10;;;1.63;;
40755;SDS011;26461;45.630;9.418;2022-07-29T08:41:35;2.95;;;1.15;;
40755;SDS011;26461;45.630;9.418;2022-07-29T08:44:41;2.17;;;0.90;;
40755;SDS011;26461;45.630;9.418;2022-07-29T08:47:50;3.35;;;0.90;;
40755;SDS011;26461;45.630;9.418;2022-07-29T08:51:01;5.57;;;1.70;;
40755;SDS011;26461;45.630;9.418;2022-07-29T08:54:16;7.25;;;1.58;;
40755;SDS011;26461;45.630;9.418;2022-07-29T08:57:27;2.40;;;0.75;;
40755;SDS011;26461;45.630;9.418;2022-07-29T09:00:38;2.60;;;0.70;;
40755;SDS011;26461;45.630;9.418;2022-07-29T09:03:59;2.70;;;1.17;;
40755;SDS011;26461;45.630;9.418;2022-07-29T09:07:16;2.53;;;1.20;;
40755;SDS011;26461;45.630;9.418;2022-07-29T09:10:27;2.97;;;0.77;;
40755;SDS011;26461;45.630;9.418;2022-07-29T09:13:37;2.55;;;1.20;;
40755;SDS011;26461;45.630;9.418;2022-07-29T09:16:52;2.70;;;0.70;;
40755;SDS011;26461;45.630;9.418;2022-07-29T09:20:11;5.32;;;1.10;;
40755;SDS011;26461;45.630;9.418;2022-07-29T09:23:22;5.63;;;0.88;;
40755;SDS011;26461;45.630;9.418;2022-07-29T09:26:34;5.28;;;1.55;;
40755;SDS011;26461;45.630;9.418;2022-07-29T09:29:45;2.67;;;0.85;;
40755;SDS011;26461;45.630;9.418;2022-07-29T09:32:57;2.65;;;1.13;;
40755;SDS011;26461;45.630;9.418;2022-07-29T09:36:10;5.30;;;1.40;;
40755;SDS011;26461;45.630;9.418;2022-07-29T09:39:29;2.97;;;1.35;;
40755;SDS011;26461;45.630;9.418;2022-07-29T09:42:40;6.68;;;2.78;;
40755;SDS011;26461;45.630;9.418;2022-07-29T09:45:50;5.50;;;1.45;;
40755;SDS011;26461;45.630;9.418;2022-07-29T09:49:10;3.55;;;0.85;;
40755;SDS011;26461;45.630;9.418;2022-07-29T09:52:22;3.47;;;1.30;;
40755;SDS011;26461;45.630;9.418;2022-07-29T09:55:32;2.60;;;0.70;;
40755;SDS011;26461;45.630;9.418;2022-07-29T09:59:05;2.47;;;1.02;;
40755;SDS011;26461;45.630;9.418;2022-07-29T10:02:17;3.85;;;1.17;;
40755;SDS011;26461;45.630;9.418;2022-07-29T10:05:27;2.00;;;0.50;;
40755;SDS011;26461;45.630;9.418;2022-07-29T10:08:37;4.93;;;1.52;;
40755;SDS011;26461;45.630;9.418;2022-07-29T10:12:02;3.97;;;1.02;;
40755;SDS011;26461;45.630;9.418;2022-07-29T10:15:16;4.40;;;1.50;;
40755;SDS011;26461;45.630;9.418;2022-07-29T10:18:27;3.60;;;1.38;;
40755;SDS011;26461;45.630;9.418;2022-07-29T10:21:37;3.25;;;1.55;;
40755;SDS011;26461;45.630;9.418;2022-07-29T10:24:49;3.90;;;1.80;;
40755;SDS011;26461;45.630;9.418;2022-07-29T10:27:59;15.02;;;1.70;;
40755;SDS011;26461;45.630;9.418;2022-07-29T10:31:11;4.80;;;2.15;;
40755;SDS011;26461;45.630;9.418;2022-07-29T10:38:07;2.13;;;0.60;;
40755;SDS011;26461;45.630;9.418;2022-07-29T10:44:58;3.05;;;0.93;;
40755;SDS011;26461;45.630;9.418;2022-07-29T10:48:08;3.30;;;2.25;;
40755;SDS011;26461;45.630;9.418;2022-07-29T10:51:18;3.92;;;1.55;;
40755;SDS011;26461;45.630;9.418;2022-07-29T10:57:53;2.83;;;1.30;;
40755;SDS011;26461;45.630;9.418;2022-07-29T11:01:28;3.40;;;2.10;;
40755;SDS011;26461;45.630;9.418;2022-07-29T11:05:26;3.72;;;1.27;;
40755;SDS011;26461;45.630;9.418;2022-07-29T11:08:16;4.55;;;1.27;;
40755;SDS011;26461;45.630;9.418;2022-07-29T11:14:55;5.93;;;2.55;;
40755;SDS011;26461;45.630;9.418;2022-07-29T11:18:07;4.95;;;2.53;;
40755;SDS011;26461;45.630;9.418;2022-07-29T11:21:37;5.95;;;3.10;;
40755;SDS011;26461;45.630;9.418;2022-07-29T11:25:12;9.27;;;4.55;;
40755;SDS011;26461;45.630;9.418;2022-07-29T11:28:22;5.30;;;3.13;;
40755;SDS011;26461;45.630;9.418;2022-07-29T11:31:36;7.45;;;3.60;;
40755;SDS011;26461;45.630;9.418;2022-07-29T11:38:24;3.80;;;3.15;;
40755;SDS011;26461;45.630;9.418;2022-07-29T11:41:36;8.10;;;3.45;;
40755;SDS011;26461;45.630;9.418;2022-07-29T11:48:19;7.15;;;2.38;;
40755;SDS011;26461;45.630;9.418;2022-07-29T11:51:30;10.43;;;3.45;;
40755;SDS011;26461;45.630;9.418;2022-07-29T11:54:35;9.45;;;3.20;;
40755;SDS011;26461;45.630;9.418;2022-07-29T11:57:49;6.75;;;4.88;;
40755;SDS011;26461;45.630;9.418;2022-07-29T12:01:04;9.10;;;5.45;;
40755;SDS011;26461;45.630;9.418;2022-07-29T12:04:15;5.75;;;3.30;;
40755;SDS011;26461;45.630;9.418;2022-07-29T12:07:29;6.47;;;3.10;;
40755;SDS011;26461;45.630;9.418;2022-07-29T12:10:43;8.50;;;4.80;;
40755;SDS011;26461;45.630;9.418;2022-07-29T12:13:53;8.70;;;4.20;;
40755;SDS011;26461;45.630;9.418;2022-07-29T12:17:04;7.30;;;3.40;;
40755;SDS011;26461;45.630;9.418;2022-07-29T12:20:22;6.70;;;2.88;;
40755;SDS011;26461;45.630;9.418;2022-07-29T12:23:36;5.68;;;2.17;;
40755;SDS011;26461;45.630;9.418;2022-07-29T12:26:48;4.03;;;2.38;;
40755;SDS011;26461;45.630;9.418;2022-07-29T12:30:03;5.03;;;3.78;;
40755;SDS011;26461;45.630;9.418;2022-07-29T12:33:17;6.43;;;3.30;;
40755;SDS011;26461;45.630;9.418;2022-07-29T12:36:29;7.75;;;2.78;;
40755;SDS011;26461;45.630;9.418;2022-07-29T12:39:40;6.90;;;4.65;;
40755;SDS011;26461;45.630;9.418;2022-07-29T12:46:24;8.52;;;2.78;;
40755;SDS011;26461;45.630;9.418;2022-07-29T12:49:35;4.18;;;2.03;;
40755;SDS011;26461;45.630;9.418;2022-07-29T12:52:46;5.80;;;3.17;;
40755;SDS011;26461;45.630;9.418;2022-07-29T12:55:57;8.25;;;3.88;;
40755;SDS011;26461;45.630;9.418;2022-07-29T12:59:21;11.10;;;6.20;;
40755;SDS011;26461;45.630;9.418;2022-07-29T13:02:31;6.22;;;3.85;;
40755;SDS011;26461;45.630;9.418;2022-07-29T13:05:44;3.42;;;1.70;;
40755;SDS011;26461;45.630;9.418;2022-07-29T13:12:11;9.65;;;3.08;;
40755;SDS011;26461;45.630;9.418;2022-07-29T13:15:23;8.20;;;4.68;;
40755;SDS011;26461;45.630;9.418;2022-07-29T13:18:34;6.80;;;5.15;;
40755;SDS011;26461;45.630;9.418;2022-07-29T13:21:47;19.00;;;5.18;;
40755;SDS011;26461;45.630;9.418;2022-07-29T13:24:58;8.10;;;3.30;;
40755;SDS011;26461;45.630;9.418;2022-07-29T13:28:11;7.05;;;4.13;;
40755;SDS011;26461;45.630;9.418;2022-07-29T13:31:21;9.85;;;6.07;;
40755;SDS011;26461;45.630;9.418;2022-07-29T13:34:31;6.90;;;4.40;;
40755;SDS011;26461;45.630;9.418;2022-07-29T13:37:36;9.82;;;5.05;;
40755;SDS011;26461;45.630;9.418;2022-07-29T13:40:49;7.70;;;4.00;;
40755;SDS011;26461;45.630;9.418;2022-07-29T13:43:57;9.95;;;4.63;;
40755;SDS011;26461;45.630;9.418;2022-07-29T13:47:03;7.68;;;4.97;;
40755;SDS011;26461;45.630;9.418;2022-07-29T13:50:09;6.03;;;3.47;;
40755;SDS011;26461;45.630;9.418;2022-07-29T13:53:17;6.95;;;2.55;;
40755;SDS011;26461;45.630;9.418;2022-07-29T13:56:25;11.40;;;4.80;;
40755;SDS011;26461;45.630;9.418;2022-07-29T13:59:34;6.75;;;4.13;;
40755;SDS011;26461;45.630;9.418;2022-07-29T14:02:40;6.80;;;4.75;;
40755;SDS011;26461;45.630;9.418;2022-07-29T14:05:46;5.95;;;4.00;;
40755;SDS011;26461;45.630;9.418;2022-07-29T14:09:00;9.27;;;3.83;;
40755;SDS011;26461;45.630;9.418;2022-07-29T14:12:12;5.20;;;3.10;;
40755;SDS011;26461;45.630;9.418;2022-07-29T14:15:18;9.27;;;4.45;;
40755;SDS011;26461;45.630;9.418;2022-07-29T14:18:24;8.60;;;3.78;;
40755;SDS011;26461;45.630;9.418;2022-07-29T14:21:29;5.15;;;3.55;;
40755;SDS011;26461;45.630;9.418;2022-07-29T14:24:38;4.22;;;2.55;;
40755;SDS011;26461;45.630;9.418;2022-07-29T14:27:43;6.38;;;4.10;;
40755;SDS011;26461;45.630;9.418;2022-07-29T14:30:53;8.75;;;4.95;;
40755;SDS011;26461;45.630;9.418;2022-07-29T14:34:03;8.25;;;5.13;;
40755;SDS011;26461;45.630;9.418;2022-07-29T14:37:13;5.93;;;3.83;;
40755;SDS011;26461;45.630;9.418;2022-07-29T14:40:23;6.55;;;4.20;;
40755;SDS011;26461;45.630;9.418;2022-07-29T14:43:34;5.88;;;3.38;;
40755;SDS011;26461;45.630;9.418;2022-07-29T14:46:44;6.03;;;3.30;;
40755;SDS011;26461;45.630;9.418;2022-07-29T14:49:54;8.68;;;4.72;;
40755;SDS011;26461;45.630;9.418;2022-07-29T14:53:04;7.85;;;4.75;;
40755;SDS011;26461;45.630;9.418;2022-07-29T14:56:10;7.13;;;4.15;;
40755;SDS011;26461;45.630;9.418;2022-07-29T14:59:20;9.63;;;4.90;;
40755;SDS011;26461;45.630;9.418;2022-07-29T15:02:31;10.95;;;4.55;;
40755;SDS011;26461;45.630;9.418;2022-07-29T15:05:42;7.43;;;4.03;;
40755;SDS011;26461;45.630;9.418;2022-07-29T15:08:52;8.75;;;4.40;;
40755;SDS011;26461;45.630;9.418;2022-07-29T15:12:02;7.80;;;4.53;;
40755;SDS011;26461;45.630;9.418;2022-07-29T15:15:07;7.22;;;3.72;;
40755;SDS011;26461;45.630;9.418;2022-07-29T15:18:18;12.77;;;5.60;;
40755;SDS011;26461;45.630;9.418;2022-07-29T15:21:28;6.70;;;4.32;;
40755;SDS011;26461;45.630;9.418;2022-07-29T15:24:38;7.07;;;4.63;;
40755;SDS011;26461;45.630;9.418;2022-07-29T15:27:48;12.73;;;6.88;;
40755;SDS011;26461;45.630;9.418;2022-07-29T15:30:58;8.85;;;2.80;;
40755;SDS011;26461;45.630;9.418;2022-07-29T15:34:08;5.45;;;3.00;;
40755;SDS011;26461;45.630;9.418;2022-07-29T15:37:18;4.00;;;2.00;;
40755;SDS011;26461;45.630;9.418;2022-07-29T15:40:28;5.70;;;1.10;;
40755;SDS011;26461;45.630;9.418;2022-07-29T15:43:42;5.85;;;1.00;;
40755;SDS011;26461;45.630;9.418;2022-07-29T15:46:53;7.85;;;1.00;;
40755;SDS011;26461;45.630;9.418;2022-07-29T15:50:12;8.35;;;0.77;;
40755;SDS011;26461;45.630;9.418;2022-07-29T15:53:25;2.45;;;0.68;;
40755;SDS011;26461;45.630;9.418;2022-07-29T15:56:35;1.88;;;0.55;;
40755;SDS011;26461;45.630;9.418;2022-07-29T15:59:49;4.18;;;1.20;;
40755;SDS011;26461;45.630;9.418;2022-07-29T16:03:01;2.40;;;1.08;;
40755;SDS011;26461;45.630;9.418;2022-07-29T16:06:06;4.72;;;1.60;;
40755;SDS011;26461;45.630;9.418;2022-07-29T16:09:17;4.45;;;1.30;;
40755;SDS011;26461;45.630;9.418;2022-07-29T16:12:27;9.00;;;4.50;;
40755;SDS011;26461;45.630;9.418;2022-07-29T16:15:38;5.32;;;1.63;;
40755;SDS011;26461;45.630;9.418;2022-07-29T16:18:48;5.70;;;3.10;;
40755;SDS011;26461;45.630;9.418;2022-07-29T16:21:59;10.23;;;2.25;;
40755;SDS011;26461;45.630;9.418;2022-07-29T16:25:11;6.57;;;0.80;;
40755;SDS011;26461;45.630;9.418;2022-07-29T16:28:17;8.57;;;1.17;;
40755;SDS011;26461;45.630;9.418;2022-07-29T16:31:29;4.25;;;0.85;;
40755;SDS011;26461;45.630;9.418;2022-07-29T16:34:41;6.05;;;1.67;;
40755;SDS011;26461;45.630;9.418;2022-07-29T16:37:51;5.57;;;1.50;;
40755;SDS011;26461;45.630;9.418;2022-07-29T16:41:04;6.40;;;2.17;;
40755;SDS011;26461;45.630;9.418;2022-07-29T16:44:15;4.32;;;1.63;;
40755;SDS011;26461;45.630;9.418;2022-07-29T16:47:25;5.13;;;1.77;;
40755;SDS011;26461;45.630;9.418;2022-07-29T16:50:36;3.25;;;1.30;;
40755;SDS011;26461;45.630;9.418;2022-07-29T16:53:46;5.55;;;1.10;;
40755;SDS011;26461;45.630;9.418;2022-07-29T16:56:56;2.80;;;0.95;;
40755;SDS011;26461;45.630;9.418;2022-07-29T17:00:08;3.10;;;1.25;;
40755;SDS011;26461;45.630;9.418;2022-07-29T17:03:19;5.38;;;1.00;;
40755;SDS011;26461;45.630;9.418;2022-07-29T17:06:29;1.88;;;0.60;;
40755;SDS011;26461;45.630;9.418;2022-07-29T17:09:40;6.25;;;0.95;;
40755;SDS011;26461;45.630;9.418;2022-07-29T17:12:50;3.70;;;1.30;;
40755;SDS011;26461;45.630;9.418;2022-07-29T17:16:00;5.10;;;1.60;;
40755;SDS011;26461;45.630;9.418;2022-07-29T17:19:10;7.45;;;1.13;;
40755;SDS011;26461;45.630;9.418;2022-07-29T17:22:20;5.53;;;1.25;;
40755;SDS011;26461;45.630;9.418;2022-07-29T17:25:31;2.60;;;1.23;;
40755;SDS011;26461;45.630;9.418;2022-07-29T17:28:40;3.72;;;1.52;;
40755;SDS011;26461;45.630;9.418;2022-07-29T17:31:51;3.95;;;1.20;;
40755;SDS011;26461;45.630;9.418;2022-07-29T17:35:01;2.97;;;1.08;;
40755;SDS011;26461;45.630;9.418;2022-07-29T17:38:11;2.25;;;0.68;;
40755;SDS011;26461;45.630;9.418;2022-07-29T17:44:53;5.22;;;1.90;;
40755;SDS011;26461;45.630;9.418;2022-07-29T17:48:03;2.85;;;1.25;;
40755;SDS011;26461;45.630;9.418;2022-07-29T17:51:13;3.47;;;1.52;;
40755;SDS011;26461;45.630;9.418;2022-07-29T17:54:23;4.55;;;1.25;;
40755;SDS011;26461;45.630;9.418;2022-07-29T17:57:33;2.85;;;0.90;;
40755;SDS011;26461;45.630;9.418;2022-07-29T18:00:43;2.60;;;1.00;;
40755;SDS011;26461;45.630;9.418;2022-07-29T18:03:53;4.07;;;1.15;;
40755;SDS011;26461;45.630;9.418;2022-07-29T18:07:03;6.65;;;1.00;;
40755;SDS011;26461;45.630;9.418;2022-07-29T18:10:13;4.30;;;0.73;;
40755;SDS011;26461;45.630;9.418;2022-07-29T18:13:23;3.17;;;1.00;;
40755;SDS011;26461;45.630;9.418;2022-07-29T18:16:34;3.67;;;1.35;;
40755;SDS011;26461;45.630;9.418;2022-07-29T18:19:44;2.92;;;0.95;;
40755;SDS011;26461;45.630;9.418;2022-07-29T18:22:54;3.67;;;0.93;;
40755;SDS011;26461;45.630;9.418;2022-07-29T18:25:59;2.95;;;1.25;;
40755;SDS011;26461;45.630;9.418;2022-07-29T18:29:11;2.15;;;0.60;;
40755;SDS011;26461;45.630;9.418;2022-07-29T18:32:21;2.78;;;1.13;;
40755;SDS011;26461;45.630;9.418;2022-07-29T18:35:31;3.40;;;0.80;;
40755;SDS011;26461;45.630;9.418;2022-07-29T18:38:41;4.07;;;1.08;;
40755;SDS011;26461;45.630;9.418;2022-07-29T18:41:52;5.55;;;1.23;;
40755;SDS011;26461;45.630;9.418;2022-07-29T18:44:59;3.47;;;1.02;;
40755;SDS011;26461;45.630;9.418;2022-07-29T18:48:09;3.60;;;1.17;;
40755;SDS011;26461;45.630;9.418;2022-07-29T18:51:19;3.22;;;1.25;;
40755;SDS011;26461;45.630;9.418;2022-07-29T18:54:29;3.03;;;0.90;;
40755;SDS011;26461;45.630;9.418;2022-07-29T18:57:39;3.15;;;1.35;;
40755;SDS011;26461;45.630;9.418;2022-07-29T19:00:49;2.53;;;0.70;;
40755;SDS011;26461;45.630;9.418;2022-07-29T19:03:54;5.15;;;1.92;;
40755;SDS011;26461;45.630;9.418;2022-07-29T19:07:03;5.50;;;0.82;;
40755;SDS011;26461;45.630;9.418;2022-07-29T19:10:13;3.75;;;2.05;;
40755;SDS011;26461;45.630;9.418;2022-07-29T19:13:23;2.20;;;1.13;;
40755;SDS011;26461;45.630;9.418;2022-07-29T19:16:34;4.07;;;1.15;;
40755;SDS011;26461;45.630;9.418;2022-07-29T19:19:44;2.30;;;0.90;;
40755;SDS011;26461;45.630;9.418;2022-07-29T19:22:54;3.28;;;0.80;;
40755;SDS011;26461;45.630;9.418;2022-07-29T19:26:06;6.97;;;1.05;;
40755;SDS011;26461;45.630;9.418;2022-07-29T19:29:12;3.13;;;0.75;;
40755;SDS011;26461;45.630;9.418;2022-07-29T19:32:23;3.75;;;0.75;;
40755;SDS011;26461;45.630;9.418;2022-07-29T19:35:33;4.20;;;0.90;;
40755;SDS011;26461;45.630;9.418;2022-07-29T19:38:44;2.35;;;0.68;;
40755;SDS011;26461;45.630;9.418;2022-07-29T19:41:50;2.08;;;0.50;;
40755;SDS011;26461;45.630;9.418;2022-07-29T19:45:00;2.75;;;1.02;;
40755;SDS011;26461;45.630;9.418;2022-07-29T19:48:10;5.32;;;0.70;;
40755;SDS011;26461;45.630;9.418;2022-07-29T19:51:21;2.72;;;1.08;;
40755;SDS011;26461;45.630;9.418;2022-07-29T19:54:31;2.22;;;0.90;;